Time;durP1;ratioP1;P1;durP2;ratioP2;P2;SDS_P1;SDS_P2;PMS_P1;PMS_P2;Temp;Humidity;BMP_temperature;BMP_pressure;BME280_temperature;BME280_humidity;BME280_pressure;Samples;Min_cycle;Max_cycle;Signal;HPM_P1;HPM_P2
2022/01/09 00:00:42;;;;;;;7.47;4.23;;;;;;;;;;5222818;28;20044;-74
2022/01/09 00:03:15;;;;;;;7.18;4.47;;;;;;;;;;5196935;28;20036;-75
2022/01/09 00:05:48;;;;;;;7.65;4.25;;;;;;;;;;5204707;28;20075;-74
2022/01/09 00:08:21;;;;;;;5.72;4.25;;;;;;;;;;5215713;28;20066;-74
2022/01/09 00:10:54;;;;;;;7.57;4.63;;;;;;;;;;4867101;28;9999975;-74
2022/01/09 00:13:26;;;;;;;6.97;5.10;;;;;;;;;;5194725;28;20044;-75
2022/01/09 00:15:59;;;;;;;7.75;4.82;;;;;;;;;;5209490;28;20208;-74
2022/01/09 00:18:32;;;;;;;7.32;4.30;;;;;;;;;;5177633;28;20264;-75
2022/01/09 00:21:06;;;;;;;10.17;4.70;;;;;;;;;;5173067;28;20774;-75
2022/01/09 00:23:38;;;;;;;8.02;4.55;;;;;;;;;;5200995;28;20832;-73
2022/01/09 00:26:11;;;;;;;8.45;4.82;;;;;;;;;;5192293;28;20048;-74
2022/01/09 00:28:44;;;;;;;6.50;4.53;;;;;;;;;;5198569;28;20052;-74
2022/01/09 00:31:17;;;;;;;6.93;4.33;;;;;;;;;;5208120;28;20431;-74
2022/01/09 00:33:50;;;;;;;8.07;4.63;;;;;;;;;;5198799;28;20043;-74
2022/01/09 00:36:22;;;;;;;8.93;4.60;;;;;;;;;;5198015;28;20048;-73
2022/01/09 00:38:55;;;;;;;6.68;4.82;;;;;;;;;;5176620;28;20052;-73
2022/01/09 00:41:28;;;;;;;8.23;4.90;;;;;;;;;;5198206;28;20044;-73
2022/01/09 00:44:01;;;;;;;12.05;4.97;;;;;;;;;;5198293;28;20052;-73
2022/01/09 00:46:33;;;;;;;8.97;5.47;;;;;;;;;;5202958;28;20060;-73
2022/01/09 00:49:06;;;;;;;10.30;5.22;;;;;;;;;;5205500;28;20060;-73
2022/01/09 00:51:39;;;;;;;9.80;5.50;;;;;;;;;;5190508;28;20056;-74
2022/01/09 00:54:12;;;;;;;9.07;5.53;;;;;;;;;;5204942;28;20055;-74
2022/01/09 00:56:45;;;;;;;8.00;5.03;;;;;;;;;;5202436;28;20048;-73
2022/01/09 00:59:18;;;;;;;7.63;5.32;;;;;;;;;;5167616;28;20072;-74
2022/01/09 01:01:51;;;;;;;8.00;5.07;;;;;;;;;;5196597;28;20052;-74
2022/01/09 01:04:24;;;;;;;9.05;4.95;;;;;;;;;;5178008;28;20392;-73
2022/01/09 01:06:57;;;;;;;9.43;4.85;;;;;;;;;;5200618;28;20056;-74
2022/01/09 01:09:31;;;;;;;8.07;5.20;;;;;;;;;;5199462;28;20051;-74
2022/01/09 01:12:04;;;;;;;8.38;4.28;;;;;;;;;;5187533;28;20051;-74
2022/01/09 01:14:37;;;;;;;7.37;4.30;;;;;;;;;;5185778;28;20059;-74
2022/01/09 01:17:10;;;;;;;6.43;4.28;;;;;;;;;;5183001;28;20045;-72
2022/01/09 01:19:43;;;;;;;7.20;4.17;;;;;;;;;;5186589;28;20049;-74
2022/01/09 01:22:33;;;;;;;7.80;4.38;;;;;;;;;;5192036;28;20646;-73
2022/01/09 01:25:06;;;;;;;10.32;4.88;;;;;;;;;;5183031;28;20048;-73
2022/01/09 01:27:39;;;;;;;7.38;3.97;;;;;;;;;;5176598;28;20172;-73
2022/01/09 01:30:12;;;;;;;6.93;4.43;;;2.00;95.40;;;;;;5196003;28;20051;-72
2022/01/09 01:32:45;;;;;;;6.40;4.18;;;;;;;;;;5199651;28;20040;-72
2022/01/09 01:35:18;;;;;;;6.40;4.30;;;;;;;;;;5183674;28;20513;-72
2022/01/09 01:37:51;;;;;;;8.73;4.28;;;;;;;;;;5193011;28;20059;-72
2022/01/09 01:40:24;;;;;;;7.72;5.13;;;;;;;;;;5182519;28;20067;-72
2022/01/09 01:42:56;;;;;;;4.60;3.47;;;;;;;;;;5181373;28;20058;-74
2022/01/09 01:45:29;;;;;;;7.57;4.03;;;;;;;;;;5174955;28;20056;-74
2022/01/09 01:48:06;;;;;;;8.90;4.15;;;;;;;;;;5198538;28;20044;-75
2022/01/09 01:50:41;;;;;;;8.18;4.70;;;;;;;;;;5179515;28;20048;-75
2022/01/09 01:53:18;;;;;;;8.00;4.72;;;2.00;94.80;;;;;;5198282;28;20048;-75
2022/01/09 01:55:56;;;;;;;5.93;3.63;;;;;;;;;;5196407;28;20036;-74
2022/01/09 01:58:31;;;;;;;6.35;3.95;;;;;;;;;;5172937;28;20935;-74
2022/01/09 02:01:04;;;;;;;5.93;3.60;;;;;;;;;;5200645;28;20044;-74
2022/01/09 02:03:38;;;;;;;7.20;4.20;;;;;;;;;;5190742;28;20048;-75
2022/01/09 02:06:14;;;;;;;7.40;4.68;;;2.00;97.10;;;;;;5160762;28;20043;-75
2022/01/09 02:08:47;;;;;;;7.53;4.68;;;2.00;98.00;;;;;;5200183;28;20048;-74
2022/01/09 02:11:21;;;;;;;6.80;4.50;;;;;;;;;;5173074;28;21268;-74
2022/01/09 02:13:53;;;;;;;7.63;4.25;;;;;;;;;;5168722;28;20044;-74
2022/01/09 02:16:27;;;;;;;6.60;4.20;;;;;;;;;;5202047;28;20590;-75
2022/01/09 02:19:02;;;;;;;8.23;4.75;;;;;;;;;;5170598;28;20052;-75
2022/01/09 02:21:35;;;;;;;6.10;4.13;;;;;;;;;;5208199;28;20053;-74
2022/01/09 02:24:08;;;;;;;9.32;5.07;;;;;;;;;;5214518;28;20055;-74
2022/01/09 02:26:41;;;;;;;5.47;4.00;;;2.10;99.90;;;;;;5217446;28;20051;-74
2022/01/09 02:29:14;;;;;;;5.15;3.80;;;;;;;;;;5177209;28;20052;-74
2022/01/09 02:31:47;;;;;;;8.02;4.50;;;;;;;;;;5196138;28;20547;-73
2022/01/09 02:34:19;;;;;;;6.65;4.32;;;;;;;;;;5185644;28;20055;-73
2022/01/09 02:36:52;;;;;;;6.00;4.03;;;;;;;;;;5203419;28;20043;-74
2022/01/09 02:39:25;;;;;;;8.82;4.15;;;;;;;;;;5198540;28;20052;-73
2022/01/09 02:41:57;;;;;;;5.38;3.80;;;;;;;;;;5180041;28;22584;-73
2022/01/09 02:44:30;;;;;;;6.63;4.00;;;;;;;;;;5191881;28;20176;-72
2022/01/09 02:47:05;;;;;;;5.22;3.72;;;;;;;;;;5198602;28;20439;-72
2022/01/09 02:49:39;;;;;;;5.53;3.60;;;;;;;;;;5204758;28;20495;-74
2022/01/09 02:52:24;;;;;;;5.20;3.55;;;;;;;;;;5186239;28;20047;-72
2022/01/09 02:55:31;;;;;;;6.97;3.88;;;;;;;;;;5209690;28;20048;-74
2022/01/09 02:58:00;;;;;;;8.15;3.20;;;2.10;99.90;;;;;;5205006;28;20577;-74
2022/01/09 03:00:35;;;;;;;10.25;3.90;;;2.20;99.90;;;;;;5206690;28;20048;-73
2022/01/09 03:03:08;;;;;;;6.75;3.65;;;;;;;;;;5188420;28;20051;-74
2022/01/09 03:05:41;;;;;;;4.40;3.13;;;;;;;;;;5196639;28;20047;-74
2022/01/09 03:08:14;;;;;;;5.27;3.30;;;;;;;;;;5204577;28;20966;-74
2022/01/09 03:10:47;;;;;;;5.37;3.30;;;;;;;;;;5201862;28;20048;-72
2022/01/09 03:13:19;;;;;;;4.35;2.90;;;;;;;;;;5209948;28;20290;-74
2022/01/09 03:15:52;;;;;;;3.88;2.72;;;;;;;;;;5185324;28;20044;-74
2022/01/09 03:18:25;;;;;;;3.33;2.25;;;;;;;;;;5206466;28;20443;-74
2022/01/09 03:20:58;;;;;;;4.03;2.63;;;;;;;;;;5199220;28;20055;-74
2022/01/09 03:23:30;;;;;;;7.23;3.50;;;;;;;;;;5210558;28;20048;-74
2022/01/09 03:26:03;;;;;;;6.77;3.37;;;;;;;;;;5200987;28;20048;-74
2022/01/09 03:28:36;;;;;;;3.77;2.50;;;;;;;;;;5194231;28;20048;-74
2022/01/09 03:31:09;;;;;;;7.60;2.57;;;;;;;;;;5202167;28;20050;-75
2022/01/09 03:33:42;;;;;;;4.53;2.97;;;;;;;;;;5206638;28;20102;-74
2022/01/09 03:36:14;;;;;;;5.45;2.75;;;;;;;;;;5189049;28;20041;-75
2022/01/09 03:38:47;;;;;;;5.47;3.28;;;;;;;;;;5209775;28;20047;-74
2022/01/09 03:41:20;;;;;;;4.05;2.53;;;;;;;;;;5207910;28;20044;-74
2022/01/09 03:43:52;;;;;;;5.20;2.38;;;;;;;;;;5215382;28;21956;-74
2022/01/09 03:46:25;;;;;;;6.90;2.90;;;;;;;;;;5205020;28;20708;-74
2022/01/09 03:48:58;;;;;;;5.97;2.17;;;;;;;;;;5192929;28;20051;-74
2022/01/09 03:51:36;;;;;;;7.30;2.30;;;;;;;;;;5218641;28;20063;-74
2022/01/09 03:54:09;;;;;;;4.20;1.92;;;;;;;;;;5208490;28;20040;-74
2022/01/09 03:56:41;;;;;;;3.17;2.10;;;;;;;;;;5207948;28;20059;-73
2022/01/09 03:59:14;;;;;;;3.72;1.90;;;;;;;;;;5190362;28;20057;-74
2022/01/09 04:01:47;;;;;;;2.97;1.92;;;;;;;;;;5198245;28;20056;-74
2022/01/09 04:04:20;;;;;;;4.47;1.45;;;;;;;;;;5174544;28;20056;-74
2022/01/09 04:06:53;;;;;;;1.02;0.85;;;;;;;;;;5194117;28;20040;-74
2022/01/09 04:09:38;;;;;;;1.95;1.30;;;;;;;;;;5205929;28;20049;-74
2022/01/09 04:12:17;;;;;;;2.05;1.25;;;2.20;99.90;;;;;;5216795;28;20051;-73
2022/01/09 04:14:50;;;;;;;1.80;1.65;;;;;;;;;;5195036;28;20059;-74
2022/01/09 04:17:42;;;;;;;0.93;0.90;;;;;;;;;;5201661;28;20091;-73
2022/01/09 04:20:15;;;;;;;1.33;1.17;;;;;;;;;;5211663;28;20063;-74
2022/01/09 04:22:49;;;;;;;2.90;1.20;;;2.20;99.90;;;;;;5203508;28;20064;-74
2022/01/09 04:25:22;;;;;;;1.52;1.35;;;;;;;;;;5204081;28;20036;-74
2022/01/09 04:27:55;;;;;;;6.40;1.17;;;;;;;;;;5194966;28;20419;-73
2022/01/09 04:30:27;;;;;;;2.60;1.30;;;;;;;;;;5200872;28;20109;-73
2022/01/09 04:33:00;;;;;;;3.00;1.27;;;;;;;;;;5192229;28;22029;-74
2022/01/09 04:35:33;;;;;;;2.57;1.43;;;;;;;;;;5190284;28;20044;-74
2022/01/09 04:38:06;;;;;;;3.70;1.58;;;;;;;;;;5209535;23;20068;-37
2022/01/09 04:40:39;;;;;;;1.73;1.35;;;;;;;;;;5215616;28;20729;-36
2022/01/09 04:43:13;;;;;;;2.85;1.33;;;;;;;;;;5235721;28;20711;-38
2022/01/09 04:45:46;;;;;;;2.33;1.48;;;;;;;;;;5248928;28;20043;-39
2022/01/09 04:48:19;;;;;;;4.50;1.40;;;;;;;;;;5255015;28;20052;-38
2022/01/09 04:50:53;;;;;;;1.63;1.23;;;;;;;;;;5246373;28;20044;-39
2022/01/09 04:53:26;;;;;;;1.30;1.20;;;;;;;;;;5260301;22;20606;-31
2022/01/09 04:55:59;;;;;;;1.38;0.93;;;;;;;;;;5214102;28;20056;-32
2022/01/09 04:58:31;;;;;;;1.15;1.05;;;;;;;;;;5233544;28;20058;-32
2022/01/09 05:01:04;;;;;;;2.03;1.92;;;;;;;;;;5203939;28;20044;-32
2022/01/09 05:03:37;;;;;;;2.03;0.90;;;;;;;;;;5201266;28;20059;-32
2022/01/09 05:06:10;;;;;;;4.32;1.10;;;;;;;;;;5205671;28;20041;-32
2022/01/09 05:08:43;;;;;;;0.98;0.82;;;;;;;;;;5189973;28;20496;-33
2022/01/09 05:11:16;;;;;;;2.17;1.17;;;;;;;;;;5206939;28;20127;-32
2022/01/09 05:13:49;;;;;;;1.85;1.30;;;;;;;;;;5206584;28;20763;-32
2022/01/09 05:16:21;;;;;;;1.13;0.70;;;;;;;;;;5188417;28;20052;-33
2022/01/09 05:19:02;;;;;;;2.13;1.20;;;;;;;;;;5203583;28;20041;-33
2022/01/09 05:21:34;;;;;;;1.50;1.05;;;;;;;;;;5210802;28;20052;-38
2022/01/09 05:24:07;;;;;;;1.40;0.90;;;;;;;;;;5207721;28;20052;-32
2022/01/09 05:26:40;;;;;;;1.70;1.35;;;;;;;;;;5208821;28;20296;-33
2022/01/09 05:29:13;;;;;;;1.08;1.00;;;;;;;;;;5207902;28;20057;-32
2022/01/09 05:31:46;;;;;;;1.57;1.13;;;;;;;;;;5207762;28;20037;-33
2022/01/09 05:34:18;;;;;;;0.60;0.60;;;;;;;;;;5209879;28;20036;-32
2022/01/09 05:36:51;;;;;;;0.85;0.85;;;;;;;;;;5201975;28;20075;-32
2022/01/09 05:39:24;;;;;;;1.05;0.80;;;;;;;;;;5212713;28;20048;-33
2022/01/09 05:41:57;;;;;;;1.42;0.95;;;;;;;;;;5193123;28;20053;-33
2022/01/09 05:44:34;;;;;;;0.80;0.80;;;;;;;;;;5206938;28;21181;-32
2022/01/09 05:47:07;;;;;;;0.47;0.40;;;;;;;;;;5197815;28;20045;-32
2022/01/09 05:49:39;;;;;;;0.80;0.60;;;;;;;;;;5189588;28;20885;-32
2022/01/09 05:52:13;;;;;;;0.63;0.63;;;;;;;;;;5201088;28;20056;-33
2022/01/09 05:54:45;;;;;;;1.48;0.70;;;;;;;;;;5212174;28;20041;-33
2022/01/09 05:57:18;;;;;;;0.57;0.57;;;;;;;;;;5207556;28;20052;-32
2022/01/09 05:59:51;;;;;;;1.92;1.15;;;;;;;;;;5191294;28;20052;-33
2022/01/09 06:02:24;;;;;;;0.60;0.60;;;;;;;;;;5205652;28;20044;-33
2022/01/09 06:04:56;;;;;;;1.80;0.82;;;;;;;;;;5203991;28;20044;-32
2022/01/09 06:07:29;;;;;;;0.98;0.70;;;;;;;;;;5204775;28;20036;-32
2022/01/09 06:10:02;;;;;;;0.73;0.73;;;;;;;;;;5208269;28;20045;-33
2022/01/09 06:12:35;;;;;;;0.40;0.40;;;;;;;;;;5207060;28;20405;-33
2022/01/09 06:15:08;;;;;;;0.52;0.52;;;3.60;99.90;;;;;;5200432;28;20051;-32
2022/01/09 06:17:44;;;;;;;0.40;0.40;;;3.60;99.90;;;;;;5210517;28;20060;-32
2022/01/09 06:20:17;;;;;;;0.40;0.40;;;;;;;;;;5214265;28;20052;-32
2022/01/09 06:22:50;;;;;;;0.50;0.50;;;;;;;;;;5214820;28;20587;-32
2022/01/09 06:25:23;;;;;;;0.73;0.60;;;;;;;;;;5217082;28;20048;-32
2022/01/09 06:27:56;;;;;;;0.88;0.80;;;;;;;;;;5213451;28;20295;-32
2022/01/09 06:30:29;;;;;;;0.50;0.50;;;;;;;;;;5210344;28;20037;-33
2022/01/09 06:33:01;;;;;;;0.77;0.70;;;;;;;;;;5199716;28;20049;-33
2022/01/09 06:35:34;;;;;;;0.60;0.60;;;;;;;;;;5203406;28;20045;-32
2022/01/09 06:38:08;;;;;;;0.32;0.30;;;;;;;;;;5175397;28;20068;-32
2022/01/09 06:40:40;;;;;;;0.60;0.60;;;;;;;;;;5206674;28;20045;-32
2022/01/09 06:43:13;;;;;;;0.70;0.60;;;;;;;;;;5203954;28;20522;-31
2022/01/09 06:45:46;;;;;;;0.73;0.50;;;;;;;;;;5201639;28;20052;-32
2022/01/09 06:48:19;;;;;;;1.65;0.50;;;;;;;;;;5212507;28;20037;-32
2022/01/09 06:50:52;;;;;;;0.68;0.50;;;;;;;;;;5209126;28;20593;-34
2022/01/09 06:53:24;;;;;;;0.60;0.60;;;;;;;;;;5213127;28;20322;-32
2022/01/09 06:55:57;;;;;;;0.60;0.60;;;;;;;;;;5209868;28;20687;-32
2022/01/09 06:58:30;;;;;;;0.60;0.60;;;;;;;;;;5186403;28;20483;-33
2022/01/09 07:01:04;;;;;;;0.50;0.50;;;3.40;99.90;;;;;;5211510;28;20302;-33
2022/01/09 07:03:37;;;;;;;1.95;0.80;;;;;;;;;;5199237;28;20432;-33
2022/01/09 07:06:11;;;;;;;2.20;0.50;;;;;;;;;;5198500;28;20156;-32
2022/01/09 07:08:43;;;;;;;1.20;0.80;;;;;;;;;;5197010;28;20037;-32
2022/01/09 07:11:16;;;;;;;0.57;0.57;;;;;;;;;;5206820;28;20040;-42
2022/01/09 07:13:49;;;;;;;1.60;0.70;;;;;;;;;;5205584;28;20045;-32
2022/01/09 07:16:22;;;;;;;2.53;0.60;;;;;;;;;;5202181;28;20047;-32
2022/01/09 07:18:55;;;;;;;0.50;0.50;;;;;;;;;;5189264;28;20325;-32
2022/01/09 07:21:27;;;;;;;2.20;0.60;;;;;;;;;;5203058;28;20045;-33
2022/01/09 07:24:00;;;;;;;0.50;0.50;;;;;;;;;;5204800;28;20615;-32
2022/01/09 07:26:35;;;;;;;0.40;0.35;;;;;;;;;;5188800;28;20041;-32
2022/01/09 07:29:09;;;;;;;0.75;0.40;;;;;;;;;;5202973;28;20503;-32
2022/01/09 07:31:42;;;;;;;0.40;0.40;;;;;;;;;;5202636;28;20052;-32
2022/01/09 07:34:14;;;;;;;0.40;0.40;;;;;;;;;;5202318;28;20649;-32
2022/01/09 07:36:48;;;;;;;1.10;0.70;;;3.30;99.90;;;;;;5189900;28;20993;-33
2022/01/09 07:39:21;;;;;;;1.15;0.68;;;;;;;;;;5186147;28;20092;-33
2022/01/09 07:41:53;;;;;;;0.83;0.83;;;;;;;;;;5183268;28;20041;-33
2022/01/09 07:44:26;;;;;;;0.30;0.30;;;;;;;;;;5181845;28;20495;-32
2022/01/09 07:47:00;;;;;;;0.50;0.50;;;;;;;;;;5202676;28;20055;-33
2022/01/09 07:49:33;;;;;;;0.45;0.45;;;;;;;;;;5193020;28;20049;-31
2022/01/09 07:52:06;;;;;;;0.60;0.60;;;;;;;;;;5205035;28;20044;-32
2022/01/09 07:54:39;;;;;;;0.40;0.40;;;;;;;;;;5213510;28;20044;-32
2022/01/09 07:57:12;;;;;;;0.80;0.60;;;;;;;;;;5197975;28;20048;-32
2022/01/09 07:59:45;;;;;;;0.85;0.50;;;;;;;;;;5194781;28;20463;-33
2022/01/09 08:02:18;;;;;;;2.28;0.63;;;;;;;;;;5192708;28;20048;-32
2022/01/09 08:04:51;;;;;;;0.60;0.57;;;;;;;;;;5200290;28;20293;-32
2022/01/09 08:07:24;;;;;;;0.60;0.60;;;;;;;;;;5193010;28;20041;-33
2022/01/09 08:09:57;;;;;;;0.70;0.70;;;;;;;;;;5196576;28;20041;-32
2022/01/09 08:12:29;;;;;;;0.60;0.60;;;;;;;;;;5189357;28;20500;-33
2022/01/09 08:15:02;;;;;;;1.13;0.65;;;;;;;;;;5176396;28;20055;-33
2022/01/09 08:17:35;;;;;;;0.75;0.60;;;;;;;;;;5179597;28;20051;-32
2022/01/09 08:20:08;;;;;;;0.70;0.70;;;;;;;;;;5197088;28;20424;-32
2022/01/09 08:22:42;;;;;;;0.43;0.40;;;;;;;;;;5189548;28;20040;-32
2022/01/09 08:25:16;;;;;;;0.60;0.40;;;3.20;99.90;;;;;;5173353;28;20427;-32
2022/01/09 08:27:49;;;;;;;0.50;0.50;;;;;;;;;;5169902;28;20674;-32
2022/01/09 08:30:22;;;;;;;0.70;0.70;;;;;;;;;;5183224;28;21200;-32
2022/01/09 08:32:55;;;;;;;1.63;0.50;;;;;;;;;;5181937;28;20818;-33
2022/01/09 08:35:28;;;;;;;0.50;0.50;;;;;;;;;;5190206;28;21137;-32
2022/01/09 08:38:01;;;;;;;0.63;0.63;;;;;;;;;;5187442;28;21198;-32
2022/01/09 08:40:34;;;;;;;0.43;0.40;;;;;;;;;;5174424;28;20674;-32
2022/01/09 08:43:06;;;;;;;0.50;0.50;;;;;;;;;;5196940;28;20503;-33
2022/01/09 08:45:39;;;;;;;0.40;0.40;;;;;;;;;;5177193;28;20527;-33
2022/01/09 08:48:12;;;;;;;2.17;1.13;;;;;;;;;;5196545;28;20036;-33
2022/01/09 08:50:45;;;;;;;0.50;0.50;;;;;;;;;;5160164;28;20404;-33
2022/01/09 08:53:17;;;;;;;0.70;0.50;;;;;;;;;;5188659;28;20441;-32
2022/01/09 08:55:50;;;;;;;0.60;0.60;;;;;;;;;;5188244;28;20649;-33
2022/01/09 08:58:23;;;;;;;0.53;0.53;;;;;;;;;;5190539;28;20044;-33
2022/01/09 09:01:00;;;;;;;0.73;0.50;;;;;;;;;;5188224;28;20570;-32
2022/01/09 09:03:36;;;;;;;0.80;0.80;;;;;;;;;;5190104;28;20056;-33
2022/01/09 09:06:10;;;;;;;0.57;0.50;;;3.40;99.90;;;;;;5170059;28;20040;-33
2022/01/09 09:08:44;;;;;;;0.52;0.47;;;3.30;99.90;;;;;;5197741;28;20047;-33
2022/01/09 09:11:16;;;;;;;0.73;0.73;;;;;;;;;;4845820;28;10000560;-32
2022/01/09 09:13:49;;;;;;;0.77;0.70;;;;;;;;;;4848831;28;10000402;-32
2022/01/09 09:16:22;;;;;;;2.17;0.80;;;;;;;;;;5203558;28;20515;-32
2022/01/09 09:18:55;;;;;;;0.63;0.63;;;;;;;;;;5179578;28;20044;-32
2022/01/09 09:21:28;;;;;;;0.85;0.55;;;;;;;;;;5189389;28;20045;-42
2022/01/09 09:24:01;;;;;;;0.93;0.80;;;;;;;;;;5165140;28;20552;-32
2022/01/09 09:26:34;;;;;;;0.70;0.70;;;3.40;99.90;;;;;;5199076;28;20059;-33
2022/01/09 09:29:07;;;;;;;0.90;0.90;;;;;;;;;;5201789;28;20051;-32
2022/01/09 09:31:40;;;;;;;0.57;0.50;;;;;;;;;;5208197;28;20056;-32
2022/01/09 09:34:13;;;;;;;0.80;0.80;;;;;;;;;;5195302;28;20085;-32
2022/01/09 09:36:47;;;;;;;0.60;0.60;;;;;;;;;;5192880;28;20044;-33
2022/01/09 09:39:20;;;;;;;0.95;0.68;;;;;;;;;;5189204;28;20052;-33
2022/01/09 09:41:53;;;;;;;0.50;0.50;;;3.50;99.90;;;;;;5197803;28;20514;-32
2022/01/09 09:44:26;;;;;;;0.80;0.70;;;;;;;;;;5196735;28;20055;-32
2022/01/09 09:47:00;;;;;;;1.25;0.65;;;3.40;99.90;;;;;;5194456;28;20052;-32
2022/01/09 09:49:32;;;;;;;;;;;3.40;99.90;;;;;;5205448;28;20242;-33
2022/01/09 09:52:06;;;;;;;1.00;0.90;;;3.50;99.90;;;;;;5194734;28;20391;-32
2022/01/09 09:54:38;;;;;;;;;;;3.50;99.90;;;;;;5197060;28;21155;-33
2022/01/09 09:57:11;;;;;;;2.00;0.50;;;;;;;;;;5211367;28;19940;-33
2022/01/09 09:59:44;;;;;;;0.77;0.60;;;;;;;;;;5206667;28;20049;-32
2022/01/09 10:02:18;;;;;;;2.65;0.60;;;3.50;99.90;;;;;;5205984;28;20052;-33
2022/01/09 10:05:00;;;;;;;1.35;0.65;;;3.50;99.90;;;;;;5204671;28;20049;-33
2022/01/09 10:07:33;;;;;;;1.27;0.65;;;3.50;99.90;;;;;;5195889;28;20552;-33
2022/01/09 10:10:18;;;;;;;0.68;0.63;;;3.50;99.90;;;;;;5200459;28;20043;-32
2022/01/09 10:12:51;;;;;;;0.88;0.73;;;;;;;;;;5185175;28;20041;-32
2022/01/09 10:15:26;;;;;;;0.93;0.93;;;3.50;99.90;;;;;;5208534;28;20041;-32
2022/01/09 10:17:59;;;;;;;1.77;0.70;;;;;;;;;;5209293;28;20522;-33
2022/01/09 10:20:32;;;;;;;0.77;0.77;;;;;;;;;;5207527;28;20404;-33
2022/01/09 10:23:04;;;;;;;1.15;0.60;;;3.50;99.90;;;;;;5198680;28;20040;-32
2022/01/09 10:25:38;;;;;;;2.63;0.73;;;3.50;99.90;;;;;;5211728;28;20654;-32
2022/01/09 10:28:13;;;;;;;0.80;0.80;;;3.60;99.90;;;;;;5185769;28;20052;-33
2022/01/09 10:30:48;;;;;;;1.20;1.10;;;3.70;99.90;;;;;;5212150;28;20554;-32
2022/01/09 10:33:25;;;;;;;1.20;1.05;;;3.60;99.90;;;;;;5205321;28;20293;-32
2022/01/09 10:35:58;;;;;;;2.25;1.02;;;;;;;;;;5176552;28;20063;-33
2022/01/09 10:38:31;;;;;;;1.50;0.67;;;;;;;;;;5203292;28;20048;-32
2022/01/09 10:41:04;;;;;;;1.02;1.00;;;;;;;;;;5206287;28;20299;-32
2022/01/09 10:43:41;;;;;;;1.58;0.70;;;3.70;99.90;;;;;;5201599;28;20052;-32
2022/01/09 10:46:14;;;;;;;0.68;0.68;;;;;;;;;;5203362;28;20052;-32
2022/01/09 10:48:47;;;;;;;1.42;0.95;;;;;;;;;;5208519;28;20041;-33
2022/01/09 10:51:20;;;;;;;1.02;0.98;;;;;;;;;;5196395;28;21026;-32
2022/01/09 10:53:53;;;;;;;;;;;3.70;99.90;;;;;;5202297;28;20922;-32
2022/01/09 10:56:26;;;;;;;2.70;1.13;;;;;;;;;;5203458;28;21479;-32
2022/01/09 10:58:58;;;;;;;2.92;1.08;;;;;;;;;;5202604;28;20056;-33
2022/01/09 11:01:32;;;;;;;1.42;0.90;;;3.70;99.90;;;;;;5207791;28;20263;-32
2022/01/09 11:04:07;;;;;;;1.48;1.00;;;3.70;99.90;;;;;;5208031;28;20056;-32
2022/01/09 11:06:43;;;;;;;1.77;1.10;;;;;;;;;;5195989;28;20415;-33
2022/01/09 11:09:17;;;;;;;2.72;1.30;;;;;;;;;;5191466;28;20052;-32
2022/01/09 11:11:50;;;;;;;5.05;1.83;;;3.90;99.90;;;;;;5176421;28;20303;-33
2022/01/09 11:14:24;;;;;;;1.98;1.27;;;3.90;99.90;;;;;;5186660;28;20496;-33
2022/01/09 11:16:59;;;;;;;2.00;1.13;;;4.00;99.90;;;;;;5208273;28;20060;-32
2022/01/09 11:19:33;;;;;;;4.28;1.25;;;4.00;99.90;;;;;;5185270;28;20053;-32
2022/01/09 11:22:08;;;;;;;1.42;1.15;;;4.00;99.90;;;;;;5174609;28;20575;-32
2022/01/09 11:24:43;;;;;;;5.63;1.60;;;4.00;99.90;;;;;;5187823;28;20048;-32
2022/01/09 11:27:18;;;;;;;2.30;1.15;;;4.00;99.90;;;;;;5181939;28;20408;-32
2022/01/09 11:30:09;;;;;;;1.60;1.10;;;4.00;99.90;;;;;;5188704;28;20040;-32
2022/01/09 11:33:13;;;;;;;2.95;1.50;;;4.00;99.90;;;;;;4487232;28;10000322;-32
2022/01/09 11:36:28;;;;;;;6.63;1.70;;;4.10;99.90;;;;;;5179369;28;20530;-32
2022/01/09 11:39:23;;;;;;;5.90;1.67;;;4.10;99.90;;;;;;5148232;28;20056;-33
2022/01/09 11:42:13;;;;;;;4.78;1.20;;;4.10;99.90;;;;;;5167016;28;20792;-34
2022/01/09 11:44:46;;;;;;;3.33;1.20;;;;;;;;;;5186358;28;20089;-32
2022/01/09 11:47:20;;;;;;;2.38;1.20;;;4.00;99.90;;;;;;5190707;28;20052;-33
2022/01/09 11:49:54;;;;;;;2.45;1.10;;;;;;;;;;5175658;28;20052;-33
2022/01/09 11:52:28;;;;;;;6.75;1.30;;;4.10;99.90;;;;;;5163586;28;20562;-33
2022/01/09 11:55:06;;;;;;;2.55;1.42;;;4.10;99.90;;;;;;5183308;28;20059;-32
2022/01/09 11:57:44;;;;;;;2.85;1.08;;;;;;;;;;5186865;28;20186;-32
2022/01/09 12:00:37;;;;;;;2.00;1.10;;;4.30;99.90;;;;;;5215273;28;20079;-32
2022/01/09 12:03:28;;;;;;;2.50;1.02;;;4.20;99.90;;;;;;5212538;28;20509;-32
2022/01/09 12:06:11;;;;;;;4.68;1.10;;;4.30;99.90;;;;;;5185281;28;20470;-33
2022/01/09 12:09:00;;;;;;;4.07;1.73;;;4.20;99.90;;;;;;5183862;28;20059;-32
2022/01/09 12:12:08;;;;;;;2.60;1.25;;;4.20;99.90;;;;;;5187593;28;20048;-33
2022/01/09 12:17:41;;;;;;;3.92;1.30;;;;;;;;;;5185596;28;20087;-33
2022/01/09 12:20:14;;;;;;;4.50;1.83;;;;;;;;;;5177641;28;22109;-32
2022/01/09 12:22:53;;;;;;;3.08;1.48;;;4.00;99.90;;;;;;5183949;28;20691;-33
2022/01/09 12:25:28;;;;;;;8.32;1.50;;;;;;;;;;5153509;28;20842;-37
2022/01/09 12:28:04;;;;;;;6.97;1.73;;;4.00;99.90;;;;;;5180878;28;20057;-33
2022/01/09 12:30:38;;;;;;;5.57;1.65;;;;;;;;;;5199901;28;20505;-31
2022/01/09 12:33:27;;;;;;;3.03;1.30;;;4.10;99.90;;;;;;5211288;28;20052;-33
2022/01/09 12:36:11;;;;;;;3.10;1.45;;;4.10;99.90;;;;;;5200546;28;20453;-32
2022/01/09 12:38:46;;;;;;;6.18;1.67;;;4.10;99.90;;;;;;5201349;28;20091;-33
2022/01/09 12:41:31;;;;;;;4.45;1.40;;;3.90;99.90;;;;;;5204673;28;20052;-33
2022/01/09 12:44:08;;;;;;;10.25;2.10;;;;;;;;;;5204844;28;20053;-34
2022/01/09 12:46:42;;;;;;;5.45;2.03;;;;;;;;;;5190725;28;20398;-33
2022/01/09 12:49:15;;;;;;;5.70;2.10;;;;;;;;;;5200243;28;20389;-34
2022/01/09 12:51:50;;;;;;;5.15;2.08;;;4.10;99.90;;;;;;5179513;28;20047;-33
2022/01/09 12:54:23;;;;;;;8.93;2.28;;;;;;;;;;5214029;28;20041;-33
2022/01/09 12:56:56;;;;;;;3.63;1.50;;;;;;;;;;4853568;28;10000438;-33
2022/01/09 12:59:29;;;;;;;4.97;1.33;;;;;;;;;;5158750;28;21047;-33
2022/01/09 13:02:03;;;;;;;1.97;1.40;;;;;;;;;;5188246;28;20421;-33
2022/01/09 13:04:36;;;;;;;7.30;1.50;;;;;;;;;;5190649;28;20393;-33
2022/01/09 13:07:13;;;;;;;2.53;1.20;;;4.40;99.90;;;;;;5165336;28;20410;-33
2022/01/09 13:09:46;;;;;;;4.57;1.77;;;;;;;;;;5131343;28;20044;-33
2022/01/09 13:12:22;;;;;;;10.73;2.05;;;;;;;;;;5172550;28;20045;-33
2022/01/09 13:14:55;;;;;;;5.15;1.70;;;;;;;;;;5179684;28;20049;-33
2022/01/09 13:17:29;;;;;;;3.60;1.45;;;;;;;;;;5163747;28;20044;-33
2022/01/09 13:20:17;;;;;;;4.20;1.80;;;4.30;99.90;;;;;;5132323;28;22243;-33
2022/01/09 13:23:11;;;;;;;3.05;1.40;;;4.30;99.90;;;;;;5164626;28;20082;-32
2022/01/09 13:25:49;;;;;;;4.40;1.77;;;4.30;99.90;;;;;;5153428;28;20059;-33
2022/01/09 13:28:24;;;;;;;4.82;1.30;;;4.40;99.90;;;;;;5140991;28;20584;-32
2022/01/09 13:30:58;;;;;;;3.15;1.40;;;4.40;99.90;;;;;;5147640;28;20415;-33
2022/01/09 13:33:31;;;;;;;6.18;2.28;;;;;;;;;;5150436;28;20048;-33
2022/01/09 13:36:04;;;;;;;7.83;2.00;;;;;;;;;;5149441;28;20048;-33
2022/01/09 13:38:36;;;;;;;7.80;1.80;;;;;;;;;;5140855;28;20072;-32
2022/01/09 13:41:09;;;;;;;6.77;3.23;;;;;;;;;;5138708;28;20638;-32
2022/01/09 13:43:42;;;;;;;6.35;1.80;;;;;;;;;;5157622;28;20053;-33
2022/01/09 13:46:15;;;;;;;3.37;1.80;;;;;;;;;;5190972;28;20053;-33
2022/01/09 13:48:50;;;;;;;8.57;2.47;;;4.40;99.90;;;;;;5165936;28;20551;-33
2022/01/09 13:51:47;;;;;;;6.55;1.88;;;4.40;99.90;;;;;;5163952;28;20936;-33
2022/01/09 13:54:25;;;;;;;6.20;1.80;;;4.40;99.90;;;;;;5177331;28;20331;-33
2022/01/09 13:57:06;;;;;;;5.78;2.33;;;4.40;99.90;;;;;;5173505;28;20075;-33
2022/01/09 13:59:47;;;;;;;9.00;2.35;;;4.40;99.90;;;;;;5168259;28;20045;-33
2022/01/09 14:02:22;;;;;;;8.70;1.90;;;4.30;99.90;;;;;;5158890;28;20056;-33
2022/01/09 14:05:14;;;;;;;6.05;2.15;;;5.60;99.90;;;;;;5170096;28;20049;-33
2022/01/09 14:07:54;;;;;;;6.05;2.67;;;4.30;99.90;;;;;;5142652;28;25864;-33
2022/01/09 14:10:42;;;;;;;5.65;2.25;;;4.40;99.90;;;;;;5149145;28;20419;-33
2022/01/09 14:13:17;;;;;;;10.50;2.28;;;4.40;99.90;;;;;;5157951;28;20419;-33
2022/01/09 14:15:52;;;;;;;6.50;1.90;;;4.40;99.90;;;;;;5171649;28;20052;-34
2022/01/09 14:18:28;;;;;;;7.40;2.10;;;4.40;99.90;;;;;;5167648;28;20172;-33
2022/01/09 14:21:07;;;;;;;6.55;1.90;;;4.40;99.90;;;;;;5160009;28;20275;-33
2022/01/09 14:23:42;;;;;;;8.13;2.47;;;4.40;99.90;;;;;;5167974;28;20049;-33
2022/01/09 14:26:17;;;;;;;5.18;1.83;;;4.40;99.90;;;;;;5152059;28;20049;-32
2022/01/09 14:28:51;;;;;;;7.95;2.47;;;4.30;99.90;;;;;;5156119;28;20060;-33
2022/01/09 14:31:24;;;;;;;10.35;2.88;;;;;;;;;;5152293;28;20059;-33
2022/01/09 14:33:58;;;;;;;7.10;2.35;;;4.40;99.90;;;;;;5151501;28;20056;-33
2022/01/09 14:36:33;;;;;;;6.88;2.20;;;4.30;99.90;;;;;;5157934;28;20068;-33
2022/01/09 14:39:09;;;;;;;6.20;2.53;;;4.30;99.90;;;;;;5203689;28;20367;-33
2022/01/09 14:41:42;;;;;;;5.63;2.08;;;;;;;;;;5193002;28;20464;-33
2022/01/09 14:44:15;;;;;;;8.07;2.70;;;;;;;;;;5205662;28;20045;-33
2022/01/09 14:46:48;;;;;;;6.27;2.10;;;;;;;;;;5207920;28;20436;-32
2022/01/09 14:49:21;;;;;;;6.45;2.30;;;;;;;;;;5187205;28;20311;-33
2022/01/09 14:51:53;;;;;;;7.77;2.07;;;;;;;;;;5207009;28;20527;-33
2022/01/09 14:54:26;;;;;;;6.80;2.35;;;;;;;;;;5210004;28;20291;-33
2022/01/09 14:56:59;;;;;;;7.40;2.45;;;;;;;;;;5188267;28;20049;-33
2022/01/09 14:59:32;;;;;;;10.27;2.90;;;;;;;;;;5206519;28;20063;-33